Sentry Page Protection

Latest Glasgow METAR Decoded

What is a METAR?

Raw METAR: EGPF 281520Z 14018G28KT 9999 SCT023/// BKN034/// BKN041/// //////TCU 16/13 Q1006
Time Published: Tue Jun 28 15:20:00 2022

Altimeter: 1006 hPa (29.71 inHg)
Clouds: Scattered clouds at 2300ft, Broken layer at 3400ft, Broken layer at 4100ft - Reported AGL
Visibility: 10km (6.2sm)
Dewpoint: 13°C (55°F)
Temperature: 16°C (61°F)
Wind: SE-140 at 18kt gusting to 28kt

Data pulled from AVWX API.

Customise webcam positions

Apply changes